<?xml version="1.0" encoding="UTF-8" standalone="no" ?>
<gpx xmlns="http://www.topografix.com/GPX/1/1" xmlns:xsi="http://www.w3.org/2001/XMLSchema-instance" xsi:schemaLocation="http://www.topografix.com/GPX/1/1 http://www.topografix.com/GPX/1/1/gpx.xsd" version="1.1" creator="VisuGPX - https://www.visugpx.com">
  <metadata>
    <name>42  forez</name>
  </metadata>
  <trk>
    <name><![CDATA[J5  La Chapelle en Lafayes Aboen]]></name>
    <trkseg>
      <trkpt lat="45.46304" lon="3.98835">
        <ele>1067</ele>
        <time>2018-09-26T14:38:42Z</time>
      </trkpt>
      <trkpt lat="45.4628" lon="3.98908">
        <ele>1071</ele>
        <time>2018-09-26T14:39:42Z</time>
      </trkpt>
      <trkpt lat="45.4627" lon="3.98953">
        <ele>1072</ele>
        <time>2018-09-26T14:40:42Z</time>
      </trkpt>
      <trkpt lat="45.46248" lon="3.99017">
        <ele>1072</ele>
        <time>2018-09-26T14:41:42Z</time>
      </trkpt>
      <trkpt lat="45.46204" lon="3.99072">
        <ele>1070</ele>
        <time>2018-09-26T14:42:42Z</time>
      </trkpt>
      <trkpt lat="45.46176" lon="3.99117">
        <ele>1072</ele>
        <time>2018-09-26T14:43:42Z</time>
      </trkpt>
      <trkpt lat="45.46148" lon="3.99169">
        <ele>1076</ele>
        <time>2018-09-26T14:44:42Z</time>
      </trkpt>
      <trkpt lat="45.46131" lon="3.99221">
        <ele>1084</ele>
        <time>2018-09-26T14:45:42Z</time>
      </trkpt>
      <trkpt lat="45.46114" lon="3.99293">
        <ele>1094</ele>
        <time>2018-09-26T14:46:42Z</time>
      </trkpt>
      <trkpt lat="45.46084" lon="3.9936">
        <ele>1103</ele>
        <time>2018-09-26T14:47:42Z</time>
      </trkpt>
      <trkpt lat="45.46065" lon="3.99403">
        <ele>1109</ele>
        <time>2018-09-26T14:48:42Z</time>
      </trkpt>
      <trkpt lat="45.46029" lon="3.99478">
        <ele>1121</ele>
        <time>2018-09-26T14:49:42Z</time>
      </trkpt>
      <trkpt lat="45.46021" lon="3.99512">
        <ele>1124</ele>
        <time>2018-09-26T14:50:42Z</time>
      </trkpt>
      <trkpt lat="45.45981" lon="3.99516">
        <ele>1130</ele>
        <time>2018-09-26T14:51:42Z</time>
      </trkpt>
      <trkpt lat="45.45947" lon="3.99526">
        <ele>1136</ele>
        <time>2018-09-26T14:52:42Z</time>
      </trkpt>
      <trkpt lat="45.45941" lon="3.99566">
        <ele>1137</ele>
        <time>2018-09-26T14:53:42Z</time>
      </trkpt>
      <trkpt lat="45.45937" lon="3.99579">
        <ele>1138</ele>
        <time>2018-09-26T14:54:42Z</time>
      </trkpt>
      <trkpt lat="45.45951" lon="3.996">
        <ele>1135</ele>
        <time>2018-09-26T14:55:42Z</time>
      </trkpt>
      <trkpt lat="45.45943" lon="3.99635">
        <ele>1133</ele>
        <time>2018-09-26T14:56:42Z</time>
      </trkpt>
      <trkpt lat="45.45938" lon="3.99661">
        <ele>1131</ele>
        <time>2018-09-26T14:57:42Z</time>
      </trkpt>
      <trkpt lat="45.4593" lon="3.99677">
        <ele>1129</ele>
        <time>2018-09-26T14:58:42Z</time>
      </trkpt>
      <trkpt lat="45.45925" lon="3.99689">
        <ele>1127</ele>
        <time>2018-09-26T14:59:42Z</time>
      </trkpt>
      <trkpt lat="45.45949" lon="3.99727">
        <ele>1124</ele>
        <time>2018-09-26T15:00:42Z</time>
      </trkpt>
      <trkpt lat="45.45962" lon="3.99756">
        <ele>1122</ele>
        <time>2018-09-26T15:01:42Z</time>
      </trkpt>
      <trkpt lat="45.45966" lon="3.9979">
        <ele>1118</ele>
        <time>2018-09-26T15:02:42Z</time>
      </trkpt>
      <trkpt lat="45.45957" lon="3.99815">
        <ele>1113</ele>
        <time>2018-09-26T15:03:42Z</time>
      </trkpt>
      <trkpt lat="45.45988" lon="3.99856">
        <ele>1112</ele>
        <time>2018-09-26T15:04:42Z</time>
      </trkpt>
      <trkpt lat="45.46003" lon="3.99905">
        <ele>1106</ele>
        <time>2018-09-26T15:05:42Z</time>
      </trkpt>
      <trkpt lat="45.46011" lon="3.9995">
        <ele>1100</ele>
        <time>2018-09-26T15:06:42Z</time>
      </trkpt>
      <trkpt lat="45.46046" lon="3.99996">
        <ele>1100</ele>
        <time>2018-09-26T15:07:42Z</time>
      </trkpt>
      <trkpt lat="45.46064" lon="4.00034">
        <ele>1098</ele>
        <time>2018-09-26T15:08:42Z</time>
      </trkpt>
      <trkpt lat="45.4607" lon="4.00069">
        <ele>1095</ele>
        <time>2018-09-26T15:09:42Z</time>
      </trkpt>
      <trkpt lat="45.46078" lon="4.00096">
        <ele>1093</ele>
        <time>2018-09-26T15:10:42Z</time>
      </trkpt>
      <trkpt lat="45.46082" lon="4.00131">
        <ele>1091</ele>
        <time>2018-09-26T15:11:42Z</time>
      </trkpt>
      <trkpt lat="45.46081" lon="4.00155">
        <ele>1088</ele>
        <time>2018-09-26T15:12:42Z</time>
      </trkpt>
      <trkpt lat="45.4607" lon="4.00183">
        <ele>1083</ele>
        <time>2018-09-26T15:13:42Z</time>
      </trkpt>
      <trkpt lat="45.46072" lon="4.00208">
        <ele>1082</ele>
        <time>2018-09-26T15:14:42Z</time>
      </trkpt>
      <trkpt lat="45.46077" lon="4.00248">
        <ele>1081</ele>
        <time>2018-09-26T15:15:42Z</time>
      </trkpt>
      <trkpt lat="45.4607" lon="4.00274">
        <ele>1078</ele>
        <time>2018-09-26T15:16:42Z</time>
      </trkpt>
      <trkpt lat="45.46062" lon="4.00289">
        <ele>1076</ele>
        <time>2018-09-26T15:17:42Z</time>
      </trkpt>
      <trkpt lat="45.46068" lon="4.00316">
        <ele>1076</ele>
        <time>2018-09-26T15:18:42Z</time>
      </trkpt>
      <trkpt lat="45.46083" lon="4.00354">
        <ele>1077</ele>
        <time>2018-09-26T15:19:42Z</time>
      </trkpt>
      <trkpt lat="45.46082" lon="4.00389">
        <ele>1074</ele>
        <time>2018-09-26T15:20:42Z</time>
      </trkpt>
      <trkpt lat="45.46083" lon="4.00425">
        <ele>1073</ele>
        <time>2018-09-26T15:21:42Z</time>
      </trkpt>
      <trkpt lat="45.46075" lon="4.00451">
        <ele>1071</ele>
        <time>2018-09-26T15:22:42Z</time>
      </trkpt>
      <trkpt lat="45.46071" lon="4.00477">
        <ele>1069</ele>
        <time>2018-09-26T15:23:42Z</time>
      </trkpt>
      <trkpt lat="45.46077" lon="4.00522">
        <ele>1071</ele>
        <time>2018-09-26T15:24:42Z</time>
      </trkpt>
      <trkpt lat="45.46074" lon="4.00538">
        <ele>1072</ele>
        <time>2018-09-26T15:25:42Z</time>
      </trkpt>
      <trkpt lat="45.46065" lon="4.00556">
        <ele>1072</ele>
        <time>2018-09-26T15:26:42Z</time>
      </trkpt>
      <trkpt lat="45.46045" lon="4.00575">
        <ele>1072</ele>
        <time>2018-09-26T15:27:42Z</time>
      </trkpt>
      <trkpt lat="45.46014" lon="4.00582">
        <ele>1069</ele>
        <time>2018-09-26T15:28:42Z</time>
      </trkpt>
      <trkpt lat="45.45982" lon="4.00594">
        <ele>1066</ele>
        <time>2018-09-26T15:29:42Z</time>
      </trkpt>
      <trkpt lat="45.45958" lon="4.00601">
        <ele>1064</ele>
        <time>2018-09-26T15:30:42Z</time>
      </trkpt>
      <trkpt lat="45.45937" lon="4.00623">
        <ele>1065</ele>
        <time>2018-09-26T15:31:42Z</time>
      </trkpt>
      <trkpt lat="45.4591" lon="4.00645">
        <ele>1065</ele>
        <time>2018-09-26T15:32:42Z</time>
      </trkpt>
      <trkpt lat="45.45887" lon="4.00683">
        <ele>1069</ele>
        <time>2018-09-26T15:33:42Z</time>
      </trkpt>
      <trkpt lat="45.45867" lon="4.00715">
        <ele>1070</ele>
        <time>2018-09-26T15:34:42Z</time>
      </trkpt>
      <trkpt lat="45.45824" lon="4.00753">
        <ele>1067</ele>
        <time>2018-09-26T15:35:42Z</time>
      </trkpt>
      <trkpt lat="45.45786" lon="4.00791">
        <ele>1066</ele>
        <time>2018-09-26T15:36:42Z</time>
      </trkpt>
      <trkpt lat="45.4575" lon="4.00849">
        <ele>1068</ele>
        <time>2018-09-26T15:37:42Z</time>
      </trkpt>
      <trkpt lat="45.45735" lon="4.00859">
        <ele>1068</ele>
        <time>2018-09-26T15:38:42Z</time>
      </trkpt>
      <trkpt lat="45.45726" lon="4.00883">
        <ele>1069</ele>
        <time>2018-09-26T15:39:42Z</time>
      </trkpt>
      <trkpt lat="45.45713" lon="4.00897">
        <ele>1069</ele>
        <time>2018-09-26T15:40:42Z</time>
      </trkpt>
      <trkpt lat="45.45698" lon="4.00929">
        <ele>1071</ele>
        <time>2018-09-26T15:41:42Z</time>
      </trkpt>
      <trkpt lat="45.45678" lon="4.00941">
        <ele>1070</ele>
        <time>2018-09-26T15:42:42Z</time>
      </trkpt>
      <trkpt lat="45.4561" lon="4.00994">
        <ele>1072</ele>
        <time>2018-09-26T15:43:42Z</time>
      </trkpt>
      <trkpt lat="45.45544" lon="4.01032">
        <ele>1074</ele>
        <time>2018-09-26T15:44:42Z</time>
      </trkpt>
      <trkpt lat="45.45429" lon="4.01099">
        <ele>1078</ele>
        <time>2018-09-26T15:45:42Z</time>
      </trkpt>
      <trkpt lat="45.45402" lon="4.01132">
        <ele>1077</ele>
        <time>2018-09-26T15:46:42Z</time>
      </trkpt>
      <trkpt lat="45.45417" lon="4.01144">
        <ele>1078</ele>
        <time>2018-09-26T15:47:42Z</time>
      </trkpt>
      <trkpt lat="45.45447" lon="4.01155">
        <ele>1079</ele>
        <time>2018-09-26T15:48:42Z</time>
      </trkpt>
      <trkpt lat="45.45487" lon="4.01172">
        <ele>1081</ele>
        <time>2018-09-26T15:49:42Z</time>
      </trkpt>
      <trkpt lat="45.45517" lon="4.01204">
        <ele>1084</ele>
        <time>2018-09-26T15:50:42Z</time>
      </trkpt>
      <trkpt lat="45.4553" lon="4.01252">
        <ele>1088</ele>
        <time>2018-09-26T15:51:42Z</time>
      </trkpt>
      <trkpt lat="45.45557" lon="4.01284">
        <ele>1091</ele>
        <time>2018-09-26T15:52:42Z</time>
      </trkpt>
      <trkpt lat="45.45606" lon="4.01316">
        <ele>1094</ele>
        <time>2018-09-26T15:53:42Z</time>
      </trkpt>
      <trkpt lat="45.45703" lon="4.01378">
        <ele>1097</ele>
        <time>2018-09-26T15:54:42Z</time>
      </trkpt>
      <trkpt lat="45.45786" lon="4.01389">
        <ele>1105</ele>
        <time>2018-09-26T15:55:42Z</time>
      </trkpt>
      <trkpt lat="45.45861" lon="4.01395">
        <ele>1110</ele>
        <time>2018-09-26T15:56:42Z</time>
      </trkpt>
      <trkpt lat="45.45912" lon="4.01436">
        <ele>1116</ele>
        <time>2018-09-26T15:57:42Z</time>
      </trkpt>
      <trkpt lat="45.45944" lon="4.01446">
        <ele>1119</ele>
        <time>2018-09-26T15:58:42Z</time>
      </trkpt>
      <trkpt lat="45.46016" lon="4.01446">
        <ele>1122</ele>
        <time>2018-09-26T15:59:42Z</time>
      </trkpt>
      <trkpt lat="45.46054" lon="4.01446">
        <ele>1122</ele>
        <time>2018-09-26T16:00:42Z</time>
      </trkpt>
      <trkpt lat="45.46083" lon="4.01468">
        <ele>1123</ele>
        <time>2018-09-26T16:01:42Z</time>
      </trkpt>
      <trkpt lat="45.46078" lon="4.01612">
        <ele>1128</ele>
        <time>2018-09-26T16:02:42Z</time>
      </trkpt>
      <trkpt lat="45.46065" lon="4.01662">
        <ele>1131</ele>
        <time>2018-09-26T16:03:42Z</time>
      </trkpt>
      <trkpt lat="45.46057" lon="4.01694">
        <ele>1131</ele>
        <time>2018-09-26T16:04:42Z</time>
      </trkpt>
      <trkpt lat="45.46029" lon="4.01736">
        <ele>1132</ele>
        <time>2018-09-26T16:05:42Z</time>
      </trkpt>
      <trkpt lat="45.4597" lon="4.0187">
        <ele>1133</ele>
        <time>2018-09-26T16:06:42Z</time>
      </trkpt>
      <trkpt lat="45.45923" lon="4.01985">
        <ele>1128</ele>
        <time>2018-09-26T16:07:42Z</time>
      </trkpt>
      <trkpt lat="45.45887" lon="4.02078">
        <ele>1126</ele>
        <time>2018-09-26T16:08:42Z</time>
      </trkpt>
      <trkpt lat="45.45861" lon="4.02169">
        <ele>1123</ele>
        <time>2018-09-26T16:09:42Z</time>
      </trkpt>
      <trkpt lat="45.45845" lon="4.02228">
        <ele>1121</ele>
        <time>2018-09-26T16:10:42Z</time>
      </trkpt>
      <trkpt lat="45.4584" lon="4.02263">
        <ele>1119</ele>
        <time>2018-09-26T16:11:42Z</time>
      </trkpt>
      <trkpt lat="45.45826" lon="4.02361">
        <ele>1114</ele>
        <time>2018-09-26T16:12:42Z</time>
      </trkpt>
      <trkpt lat="45.45807" lon="4.0246">
        <ele>1108</ele>
        <time>2018-09-26T16:13:42Z</time>
      </trkpt>
      <trkpt lat="45.45785" lon="4.02515">
        <ele>1104</ele>
        <time>2018-09-26T16:14:42Z</time>
      </trkpt>
      <trkpt lat="45.45785" lon="4.02553">
        <ele>1101</ele>
        <time>2018-09-26T16:15:42Z</time>
      </trkpt>
      <trkpt lat="45.45832" lon="4.02677">
        <ele>1093</ele>
        <time>2018-09-26T16:16:42Z</time>
      </trkpt>
      <trkpt lat="45.45833" lon="4.02715">
        <ele>1095</ele>
        <time>2018-09-26T16:17:42Z</time>
      </trkpt>
      <trkpt lat="45.45869" lon="4.02823">
        <ele>1095</ele>
        <time>2018-09-26T16:18:42Z</time>
      </trkpt>
      <trkpt lat="45.45893" lon="4.02955">
        <ele>1092</ele>
        <time>2018-09-26T16:19:42Z</time>
      </trkpt>
      <trkpt lat="45.45878" lon="4.03055">
        <ele>1093</ele>
        <time>2018-09-26T16:20:42Z</time>
      </trkpt>
      <trkpt lat="45.45878" lon="4.03118">
        <ele>1091</ele>
        <time>2018-09-26T16:21:42Z</time>
      </trkpt>
      <trkpt lat="45.45875" lon="4.03144">
        <ele>1090</ele>
        <time>2018-09-26T16:22:42Z</time>
      </trkpt>
      <trkpt lat="45.45861" lon="4.03196">
        <ele>1088</ele>
        <time>2018-09-26T16:23:42Z</time>
      </trkpt>
      <trkpt lat="45.45857" lon="4.03237">
        <ele>1087</ele>
        <time>2018-09-26T16:24:42Z</time>
      </trkpt>
      <trkpt lat="45.45849" lon="4.03281">
        <ele>1086</ele>
        <time>2018-09-26T16:25:42Z</time>
      </trkpt>
      <trkpt lat="45.45806" lon="4.03367">
        <ele>1081</ele>
        <time>2018-09-26T16:26:42Z</time>
      </trkpt>
      <trkpt lat="45.45804" lon="4.03396">
        <ele>1079</ele>
        <time>2018-09-26T16:27:42Z</time>
      </trkpt>
      <trkpt lat="45.45799" lon="4.03448">
        <ele>1076</ele>
        <time>2018-09-26T16:28:42Z</time>
      </trkpt>
      <trkpt lat="45.45784" lon="4.03531">
        <ele>1072</ele>
        <time>2018-09-26T16:29:42Z</time>
      </trkpt>
      <trkpt lat="45.45796" lon="4.03561">
        <ele>1070</ele>
        <time>2018-09-26T16:30:42Z</time>
      </trkpt>
      <trkpt lat="45.45797" lon="4.03602">
        <ele>1067</ele>
        <time>2018-09-26T16:31:42Z</time>
      </trkpt>
      <trkpt lat="45.45796" lon="4.03653">
        <ele>1061</ele>
        <time>2018-09-26T16:32:42Z</time>
      </trkpt>
      <trkpt lat="45.45789" lon="4.03748">
        <ele>1051</ele>
        <time>2018-09-26T16:33:42Z</time>
      </trkpt>
      <trkpt lat="45.45775" lon="4.03792">
        <ele>1047</ele>
        <time>2018-09-26T16:34:42Z</time>
      </trkpt>
      <trkpt lat="45.45762" lon="4.03851">
        <ele>1043</ele>
        <time>2018-09-26T16:35:42Z</time>
      </trkpt>
      <trkpt lat="45.45748" lon="4.0388">
        <ele>1041</ele>
        <time>2018-09-26T16:36:42Z</time>
      </trkpt>
      <trkpt lat="45.45816" lon="4.03906">
        <ele>1044</ele>
        <time>2018-09-26T16:37:42Z</time>
      </trkpt>
      <trkpt lat="45.45834" lon="4.03938">
        <ele>1043</ele>
        <time>2018-09-26T16:38:42Z</time>
      </trkpt>
      <trkpt lat="45.45848" lon="4.03982">
        <ele>1042</ele>
        <time>2018-09-26T16:39:42Z</time>
      </trkpt>
      <trkpt lat="45.45857" lon="4.04018">
        <ele>1040</ele>
        <time>2018-09-26T16:40:42Z</time>
      </trkpt>
      <trkpt lat="45.45938" lon="4.04047">
        <ele>1046</ele>
        <time>2018-09-26T16:41:42Z</time>
      </trkpt>
      <trkpt lat="45.45974" lon="4.04102">
        <ele>1044</ele>
        <time>2018-09-26T16:42:42Z</time>
      </trkpt>
      <trkpt lat="45.45983" lon="4.0414">
        <ele>1039</ele>
        <time>2018-09-26T16:43:42Z</time>
      </trkpt>
      <trkpt lat="45.46" lon="4.04173">
        <ele>1036</ele>
        <time>2018-09-26T16:44:42Z</time>
      </trkpt>
      <trkpt lat="45.46066" lon="4.04246">
        <ele>1024</ele>
        <time>2018-09-26T16:45:42Z</time>
      </trkpt>
      <trkpt lat="45.46104" lon="4.0429">
        <ele>1017</ele>
        <time>2018-09-26T16:46:42Z</time>
      </trkpt>
      <trkpt lat="45.46132" lon="4.04313">
        <ele>1013</ele>
        <time>2018-09-26T16:47:42Z</time>
      </trkpt>
      <trkpt lat="45.46171" lon="4.04325">
        <ele>1011</ele>
        <time>2018-09-26T16:48:42Z</time>
      </trkpt>
      <trkpt lat="45.46215" lon="4.04347">
        <ele>1004</ele>
        <time>2018-09-26T16:49:42Z</time>
      </trkpt>
      <trkpt lat="45.46261" lon="4.04375">
        <ele>996</ele>
        <time>2018-09-26T16:50:42Z</time>
      </trkpt>
      <trkpt lat="45.46283" lon="4.04393">
        <ele>991</ele>
        <time>2018-09-26T16:51:42Z</time>
      </trkpt>
      <trkpt lat="45.46321" lon="4.04352">
        <ele>991</ele>
        <time>2018-09-26T16:52:42Z</time>
      </trkpt>
      <trkpt lat="45.46339" lon="4.04382">
        <ele>985</ele>
        <time>2018-09-26T16:53:42Z</time>
      </trkpt>
      <trkpt lat="45.46353" lon="4.04408">
        <ele>982</ele>
        <time>2018-09-26T16:54:42Z</time>
      </trkpt>
      <trkpt lat="45.46366" lon="4.04429">
        <ele>978</ele>
        <time>2018-09-26T16:55:42Z</time>
      </trkpt>
      <trkpt lat="45.46382" lon="4.04428">
        <ele>978</ele>
        <time>2018-09-26T16:56:42Z</time>
      </trkpt>
      <trkpt lat="45.46381" lon="4.0445">
        <ele>975</ele>
        <time>2018-09-26T16:57:42Z</time>
      </trkpt>
      <trkpt lat="45.46433" lon="4.04455">
        <ele>971</ele>
        <time>2018-09-26T16:58:42Z</time>
      </trkpt>
      <trkpt lat="45.46453" lon="4.04491">
        <ele>965</ele>
        <time>2018-09-26T16:59:42Z</time>
      </trkpt>
      <trkpt lat="45.46463" lon="4.04507">
        <ele>962</ele>
        <time>2018-09-26T17:00:42Z</time>
      </trkpt>
      <trkpt lat="45.46469" lon="4.04522">
        <ele>960</ele>
        <time>2018-09-26T17:01:42Z</time>
      </trkpt>
      <trkpt lat="45.46501" lon="4.04526">
        <ele>958</ele>
        <time>2018-09-26T17:02:42Z</time>
      </trkpt>
      <trkpt lat="45.46538" lon="4.04498">
        <ele>958</ele>
        <time>2018-09-26T17:03:42Z</time>
      </trkpt>
      <trkpt lat="45.46595" lon="4.04492">
        <ele>954</ele>
        <time>2018-09-26T17:04:42Z</time>
      </trkpt>
      <trkpt lat="45.4665" lon="4.04474">
        <ele>952</ele>
        <time>2018-09-26T17:05:42Z</time>
      </trkpt>
      <trkpt lat="45.46717" lon="4.04471">
        <ele>947</ele>
        <time>2018-09-26T17:06:42Z</time>
      </trkpt>
      <trkpt lat="45.46743" lon="4.0446">
        <ele>945</ele>
        <time>2018-09-26T17:07:42Z</time>
      </trkpt>
      <trkpt lat="45.46778" lon="4.04428">
        <ele>940</ele>
        <time>2018-09-26T17:08:42Z</time>
      </trkpt>
      <trkpt lat="45.46809" lon="4.044">
        <ele>933</ele>
        <time>2018-09-26T17:09:42Z</time>
      </trkpt>
      <trkpt lat="45.46851" lon="4.04335">
        <ele>923</ele>
        <time>2018-09-26T17:10:42Z</time>
      </trkpt>
      <trkpt lat="45.46887" lon="4.04269">
        <ele>910</ele>
        <time>2018-09-26T17:11:42Z</time>
      </trkpt>
      <trkpt lat="45.46905" lon="4.04256">
        <ele>904</ele>
        <time>2018-09-26T17:12:42Z</time>
      </trkpt>
      <trkpt lat="45.46937" lon="4.04229">
        <ele>893</ele>
        <time>2018-09-26T17:13:42Z</time>
      </trkpt>
      <trkpt lat="45.46945" lon="4.0419">
        <ele>890</ele>
        <time>2018-09-26T17:14:42Z</time>
      </trkpt>
      <trkpt lat="45.46952" lon="4.0416">
        <ele>889</ele>
        <time>2018-09-26T17:15:42Z</time>
      </trkpt>
      <trkpt lat="45.46969" lon="4.04149">
        <ele>886</ele>
        <time>2018-09-26T17:16:42Z</time>
      </trkpt>
      <trkpt lat="45.47002" lon="4.04149">
        <ele>880</ele>
        <time>2018-09-26T17:17:42Z</time>
      </trkpt>
      <trkpt lat="45.47024" lon="4.04172">
        <ele>881</ele>
        <time>2018-09-26T17:18:42Z</time>
      </trkpt>
      <trkpt lat="45.47058" lon="4.04156">
        <ele>885</ele>
        <time>2018-09-26T17:19:42Z</time>
      </trkpt>
      <trkpt lat="45.47088" lon="4.04165">
        <ele>887</ele>
        <time>2018-09-26T17:20:42Z</time>
      </trkpt>
      <trkpt lat="45.47131" lon="4.04193">
        <ele>892</ele>
        <time>2018-09-26T17:21:42Z</time>
      </trkpt>
      <trkpt lat="45.47161" lon="4.04222">
        <ele>896</ele>
        <time>2018-09-26T17:22:42Z</time>
      </trkpt>
      <trkpt lat="45.47194" lon="4.04255">
        <ele>899</ele>
        <time>2018-09-26T17:23:42Z</time>
      </trkpt>
      <trkpt lat="45.47231" lon="4.04285">
        <ele>904</ele>
        <time>2018-09-26T17:24:42Z</time>
      </trkpt>
      <trkpt lat="45.47259" lon="4.04294">
        <ele>907</ele>
        <time>2018-09-26T17:25:42Z</time>
      </trkpt>
      <trkpt lat="45.4729" lon="4.04289">
        <ele>905</ele>
        <time>2018-09-26T17:26:42Z</time>
      </trkpt>
      <trkpt lat="45.47319" lon="4.04282">
        <ele>903</ele>
        <time>2018-09-26T17:27:42Z</time>
      </trkpt>
      <trkpt lat="45.47336" lon="4.04278">
        <ele>902</ele>
        <time>2018-09-26T17:28:42Z</time>
      </trkpt>
      <trkpt lat="45.47339" lon="4.043">
        <ele>901</ele>
        <time>2018-09-26T17:29:42Z</time>
      </trkpt>
      <trkpt lat="45.47352" lon="4.04335">
        <ele>897</ele>
        <time>2018-09-26T17:30:42Z</time>
      </trkpt>
      <trkpt lat="45.47376" lon="4.04385">
        <ele>889</ele>
        <time>2018-09-26T17:31:42Z</time>
      </trkpt>
      <trkpt lat="45.47396" lon="4.04435">
        <ele>880</ele>
        <time>2018-09-26T17:32:42Z</time>
      </trkpt>
      <trkpt lat="45.47413" lon="4.04484">
        <ele>871</ele>
        <time>2018-09-26T17:33:42Z</time>
      </trkpt>
      <trkpt lat="45.47419" lon="4.04518">
        <ele>866</ele>
        <time>2018-09-26T17:34:42Z</time>
      </trkpt>
      <trkpt lat="45.47418" lon="4.04554">
        <ele>862</ele>
        <time>2018-09-26T17:35:42Z</time>
      </trkpt>
      <trkpt lat="45.47418" lon="4.04579">
        <ele>858</ele>
        <time>2018-09-26T17:36:42Z</time>
      </trkpt>
      <trkpt lat="45.47418" lon="4.04626">
        <ele>851</ele>
        <time>2018-09-26T17:37:42Z</time>
      </trkpt>
      <trkpt lat="45.4741" lon="4.04666">
        <ele>845</ele>
        <time>2018-09-26T17:38:42Z</time>
      </trkpt>
      <trkpt lat="45.4741" lon="4.04818">
        <ele>830</ele>
        <time>2018-09-26T17:39:42Z</time>
      </trkpt>
      <trkpt lat="45.47414" lon="4.04912">
        <ele>824</ele>
        <time>2018-09-26T17:40:42Z</time>
      </trkpt>
      <trkpt lat="45.47407" lon="4.0494">
        <ele>823</ele>
        <time>2018-09-26T17:41:42Z</time>
      </trkpt>
      <trkpt lat="45.47394" lon="4.0498">
        <ele>820</ele>
        <time>2018-09-26T17:42:42Z</time>
      </trkpt>
      <trkpt lat="45.47359" lon="4.05085">
        <ele>818</ele>
        <time>2018-09-26T17:43:42Z</time>
      </trkpt>
      <trkpt lat="45.47339" lon="4.05147">
        <ele>817</ele>
        <time>2018-09-26T17:44:42Z</time>
      </trkpt>
      <trkpt lat="45.47343" lon="4.05203">
        <ele>814</ele>
        <time>2018-09-26T17:45:42Z</time>
      </trkpt>
      <trkpt lat="45.47339" lon="4.0525">
        <ele>811</ele>
        <time>2018-09-26T17:46:42Z</time>
      </trkpt>
      <trkpt lat="45.47337" lon="4.05294">
        <ele>808</ele>
        <time>2018-09-26T17:47:42Z</time>
      </trkpt>
      <trkpt lat="45.47329" lon="4.05356">
        <ele>804</ele>
        <time>2018-09-26T17:48:42Z</time>
      </trkpt>
      <trkpt lat="45.47319" lon="4.0542">
        <ele>802</ele>
        <time>2018-09-26T17:49:42Z</time>
      </trkpt>
      <trkpt lat="45.47307" lon="4.0547">
        <ele>800</ele>
        <time>2018-09-26T17:50:42Z</time>
      </trkpt>
      <trkpt lat="45.4727" lon="4.05542">
        <ele>795</ele>
        <time>2018-09-26T17:51:42Z</time>
      </trkpt>
      <trkpt lat="45.47262" lon="4.05565">
        <ele>794</ele>
        <time>2018-09-26T17:52:42Z</time>
      </trkpt>
      <trkpt lat="45.47249" lon="4.05591">
        <ele>791</ele>
        <time>2018-09-26T17:53:42Z</time>
      </trkpt>
      <trkpt lat="45.4724" lon="4.05617">
        <ele>789</ele>
        <time>2018-09-26T17:54:42Z</time>
      </trkpt>
      <trkpt lat="45.4721" lon="4.05637">
        <ele>784</ele>
        <time>2018-09-26T17:55:42Z</time>
      </trkpt>
      <trkpt lat="45.47187" lon="4.05643">
        <ele>782</ele>
        <time>2018-09-26T17:56:42Z</time>
      </trkpt>
      <trkpt lat="45.47168" lon="4.05669">
        <ele>778</ele>
        <time>2018-09-26T17:57:42Z</time>
      </trkpt>
      <trkpt lat="45.47154" lon="4.05703">
        <ele>769</ele>
        <time>2018-09-26T17:58:42Z</time>
      </trkpt>
      <trkpt lat="45.47148" lon="4.05708">
        <ele>767</ele>
        <time>2018-09-26T17:59:42Z</time>
      </trkpt>
      <trkpt lat="45.47118" lon="4.05699">
        <ele>763</ele>
        <time>2018-09-26T18:00:42Z</time>
      </trkpt>
      <trkpt lat="45.47086" lon="4.05683">
        <ele>757</ele>
        <time>2018-09-26T18:01:42Z</time>
      </trkpt>
      <trkpt lat="45.47061" lon="4.05645">
        <ele>760</ele>
        <time>2018-09-26T18:02:42Z</time>
      </trkpt>
      <trkpt lat="45.47048" lon="4.0563">
        <ele>762</ele>
        <time>2018-09-26T18:03:42Z</time>
      </trkpt>
      <trkpt lat="45.47031" lon="4.05626">
        <ele>763</ele>
        <time>2018-09-26T18:04:42Z</time>
      </trkpt>
      <trkpt lat="45.47021" lon="4.05634">
        <ele>762</ele>
        <time>2018-09-26T18:05:42Z</time>
      </trkpt>
      <trkpt lat="45.4702" lon="4.05666">
        <ele>758</ele>
        <time>2018-09-26T18:06:42Z</time>
      </trkpt>
      <trkpt lat="45.47021" lon="4.05685">
        <ele>758</ele>
        <time>2018-09-26T18:07:42Z</time>
      </trkpt>
      <trkpt lat="45.47009" lon="4.05704">
        <ele>757</ele>
        <time>2018-09-26T18:08:42Z</time>
      </trkpt>
      <trkpt lat="45.47006" lon="4.0572">
        <ele>757</ele>
        <time>2018-09-26T18:09:42Z</time>
      </trkpt>
      <trkpt lat="45.47018" lon="4.05756">
        <ele>757</ele>
        <time>2018-09-26T18:10:42Z</time>
      </trkpt>
      <trkpt lat="45.47039" lon="4.05798">
        <ele>758</ele>
        <time>2018-09-26T18:11:42Z</time>
      </trkpt>
      <trkpt lat="45.47051" lon="4.05826">
        <ele>758</ele>
        <time>2018-09-26T18:12:42Z</time>
      </trkpt>
      <trkpt lat="45.47041" lon="4.05843">
        <ele>761</ele>
        <time>2018-09-26T18:13:42Z</time>
      </trkpt>
      <trkpt lat="45.47013" lon="4.05855">
        <ele>768</ele>
        <time>2018-09-26T18:14:42Z</time>
      </trkpt>
      <trkpt lat="45.46995" lon="4.05848">
        <ele>771</ele>
        <time>2018-09-26T18:15:42Z</time>
      </trkpt>
      <trkpt lat="45.46951" lon="4.05809">
        <ele>774</ele>
        <time>2018-09-26T18:16:42Z</time>
      </trkpt>
      <trkpt lat="45.46924" lon="4.05779">
        <ele>775</ele>
        <time>2018-09-26T18:17:42Z</time>
      </trkpt>
      <trkpt lat="45.469" lon="4.05765">
        <ele>776</ele>
        <time>2018-09-26T18:18:42Z</time>
      </trkpt>
      <trkpt lat="45.46882" lon="4.05759">
        <ele>776</ele>
        <time>2018-09-26T18:19:42Z</time>
      </trkpt>
      <trkpt lat="45.46854" lon="4.05758">
        <ele>777</ele>
        <time>2018-09-26T18:20:42Z</time>
      </trkpt>
      <trkpt lat="45.46828" lon="4.05741">
        <ele>778</ele>
        <time>2018-09-26T18:21:42Z</time>
      </trkpt>
      <trkpt lat="45.46798" lon="4.05725">
        <ele>783</ele>
        <time>2018-09-26T18:22:42Z</time>
      </trkpt>
      <trkpt lat="45.46781" lon="4.05732">
        <ele>787</ele>
        <time>2018-09-26T18:23:42Z</time>
      </trkpt>
      <trkpt lat="45.46761" lon="4.0573">
        <ele>791</ele>
        <time>2018-09-26T18:24:42Z</time>
      </trkpt>
      <trkpt lat="45.46746" lon="4.05721">
        <ele>793</ele>
        <time>2018-09-26T18:25:42Z</time>
      </trkpt>
      <trkpt lat="45.46724" lon="4.05711">
        <ele>796</ele>
        <time>2018-09-26T18:26:42Z</time>
      </trkpt>
      <trkpt lat="45.46709" lon="4.05699">
        <ele>798</ele>
        <time>2018-09-26T18:27:42Z</time>
      </trkpt>
      <trkpt lat="45.46698" lon="4.05687">
        <ele>799</ele>
        <time>2018-09-26T18:28:42Z</time>
      </trkpt>
      <trkpt lat="45.4666" lon="4.05671">
        <ele>806</ele>
        <time>2018-09-26T18:29:42Z</time>
      </trkpt>
      <trkpt lat="45.4665" lon="4.05662">
        <ele>807</ele>
        <time>2018-09-26T18:30:42Z</time>
      </trkpt>
      <trkpt lat="45.46632" lon="4.05642">
        <ele>806</ele>
        <time>2018-09-26T18:31:42Z</time>
      </trkpt>
      <trkpt lat="45.46614" lon="4.05653">
        <ele>810</ele>
        <time>2018-09-26T18:32:42Z</time>
      </trkpt>
      <trkpt lat="45.46596" lon="4.05651">
        <ele>813</ele>
        <time>2018-09-26T18:33:42Z</time>
      </trkpt>
      <trkpt lat="45.46583" lon="4.05651">
        <ele>814</ele>
        <time>2018-09-26T18:34:42Z</time>
      </trkpt>
      <trkpt lat="45.46583" lon="4.05678">
        <ele>816</ele>
        <time>2018-09-26T18:35:42Z</time>
      </trkpt>
      <trkpt lat="45.46578" lon="4.05701">
        <ele>816</ele>
        <time>2018-09-26T18:36:42Z</time>
      </trkpt>
      <trkpt lat="45.46565" lon="4.05717">
        <ele>817</ele>
        <time>2018-09-26T18:37:42Z</time>
      </trkpt>
      <trkpt lat="45.46528" lon="4.05744">
        <ele>817</ele>
        <time>2018-09-26T18:38:42Z</time>
      </trkpt>
      <trkpt lat="45.46518" lon="4.05764">
        <ele>817</ele>
        <time>2018-09-26T18:39:42Z</time>
      </trkpt>
      <trkpt lat="45.46507" lon="4.05791">
        <ele>818</ele>
        <time>2018-09-26T18:40:42Z</time>
      </trkpt>
      <trkpt lat="45.46495" lon="4.05821">
        <ele>819</ele>
        <time>2018-09-26T18:41:42Z</time>
      </trkpt>
      <trkpt lat="45.4649" lon="4.0585">
        <ele>818</ele>
        <time>2018-09-26T18:42:42Z</time>
      </trkpt>
      <trkpt lat="45.46483" lon="4.05897">
        <ele>816</ele>
        <time>2018-09-26T18:43:42Z</time>
      </trkpt>
      <trkpt lat="45.46521" lon="4.06042">
        <ele>809</ele>
        <time>2018-09-26T18:44:42Z</time>
      </trkpt>
      <trkpt lat="45.46533" lon="4.06081">
        <ele>809</ele>
        <time>2018-09-26T18:45:42Z</time>
      </trkpt>
      <trkpt lat="45.46536" lon="4.06105">
        <ele>808</ele>
        <time>2018-09-26T18:46:42Z</time>
      </trkpt>
      <trkpt lat="45.46535" lon="4.06174">
        <ele>805</ele>
        <time>2018-09-26T18:47:42Z</time>
      </trkpt>
      <trkpt lat="45.46556" lon="4.06232">
        <ele>803</ele>
        <time>2018-09-26T18:48:42Z</time>
      </trkpt>
      <trkpt lat="45.4657" lon="4.06281">
        <ele>802</ele>
        <time>2018-09-26T18:49:42Z</time>
      </trkpt>
      <trkpt lat="45.46573" lon="4.06316">
        <ele>802</ele>
        <time>2018-09-26T18:50:42Z</time>
      </trkpt>
      <trkpt lat="45.46586" lon="4.06353">
        <ele>803</ele>
        <time>2018-09-26T18:51:42Z</time>
      </trkpt>
      <trkpt lat="45.46604" lon="4.06372">
        <ele>802</ele>
        <time>2018-09-26T18:52:42Z</time>
      </trkpt>
      <trkpt lat="45.46616" lon="4.06418">
        <ele>801</ele>
        <time>2018-09-26T18:53:42Z</time>
      </trkpt>
      <trkpt lat="45.46635" lon="4.06458">
        <ele>798</ele>
        <time>2018-09-26T18:54:42Z</time>
      </trkpt>
      <trkpt lat="45.46677" lon="4.06511">
        <ele>794</ele>
        <time>2018-09-26T18:55:42Z</time>
      </trkpt>
      <trkpt lat="45.46735" lon="4.06611">
        <ele>790</ele>
        <time>2018-09-26T18:56:42Z</time>
      </trkpt>
      <trkpt lat="45.46761" lon="4.066">
        <ele>790</ele>
        <time>2018-09-26T18:57:42Z</time>
      </trkpt>
      <trkpt lat="45.46793" lon="4.06596">
        <ele>790</ele>
        <time>2018-09-26T18:58:42Z</time>
      </trkpt>
      <trkpt lat="45.46812" lon="4.06629">
        <ele>789</ele>
        <time>2018-09-26T18:59:42Z</time>
      </trkpt>
      <trkpt lat="45.46818" lon="4.06649">
        <ele>788</ele>
        <time>2018-09-26T19:00:42Z</time>
      </trkpt>
      <trkpt lat="45.46867" lon="4.06692">
        <ele>784</ele>
        <time>2018-09-26T19:01:42Z</time>
      </trkpt>
      <trkpt lat="45.46882" lon="4.06731">
        <ele>779</ele>
        <time>2018-09-26T19:02:42Z</time>
      </trkpt>
      <trkpt lat="45.46911" lon="4.06786">
        <ele>775</ele>
        <time>2018-09-26T19:03:42Z</time>
      </trkpt>
      <trkpt lat="45.46934" lon="4.06816">
        <ele>773</ele>
        <time>2018-09-26T19:04:42Z</time>
      </trkpt>
      <trkpt lat="45.46945" lon="4.06847">
        <ele>771</ele>
        <time>2018-09-26T19:05:42Z</time>
      </trkpt>
      <trkpt lat="45.4695" lon="4.06873">
        <ele>770</ele>
        <time>2018-09-26T19:06:42Z</time>
      </trkpt>
      <trkpt lat="45.46936" lon="4.06908">
        <ele>767</ele>
        <time>2018-09-26T19:07:42Z</time>
      </trkpt>
      <trkpt lat="45.46933" lon="4.06946">
        <ele>765</ele>
        <time>2018-09-26T19:08:42Z</time>
      </trkpt>
      <trkpt lat="45.4693" lon="4.06972">
        <ele>764</ele>
        <time>2018-09-26T19:09:42Z</time>
      </trkpt>
      <trkpt lat="45.46903" lon="4.06965">
        <ele>762</ele>
        <time>2018-09-26T19:10:42Z</time>
      </trkpt>
      <trkpt lat="45.46911" lon="4.07018">
        <ele>760</ele>
        <time>2018-09-26T19:11:42Z</time>
      </trkpt>
      <trkpt lat="45.46926" lon="4.07065">
        <ele>758</ele>
        <time>2018-09-26T19:12:42Z</time>
      </trkpt>
      <trkpt lat="45.46935" lon="4.07086">
        <ele>756</ele>
        <time>2018-09-26T19:13:42Z</time>
      </trkpt>
      <trkpt lat="45.46888" lon="4.07163">
        <ele>745</ele>
        <time>2018-09-26T19:14:42Z</time>
      </trkpt>
      <trkpt lat="45.46771" lon="4.07492">
        <ele>708</ele>
        <time>2018-09-26T19:15:42Z</time>
      </trkpt>
      <trkpt lat="45.46792" lon="4.07564">
        <ele>708</ele>
        <time>2018-09-26T19:16:42Z</time>
      </trkpt>
      <trkpt lat="45.46833" lon="4.07686">
        <ele>701</ele>
        <time>2018-09-26T19:17:42Z</time>
      </trkpt>
      <trkpt lat="45.46863" lon="4.07766">
        <ele>697</ele>
        <time>2018-09-26T19:18:42Z</time>
      </trkpt>
      <trkpt lat="45.46875" lon="4.07832">
        <ele>691</ele>
        <time>2018-09-26T19:19:42Z</time>
      </trkpt>
      <trkpt lat="45.46855" lon="4.07787">
        <ele>692</ele>
        <time>2018-09-26T19:20:42Z</time>
      </trkpt>
      <trkpt lat="45.46843" lon="4.07758">
        <ele>693</ele>
        <time>2018-09-26T19:21:42Z</time>
      </trkpt>
      <trkpt lat="45.46827" lon="4.07733">
        <ele>694</ele>
        <time>2018-09-26T19:22:42Z</time>
      </trkpt>
      <trkpt lat="45.46798" lon="4.07698">
        <ele>693</ele>
        <time>2018-09-26T19:23:42Z</time>
      </trkpt>
      <trkpt lat="45.4677" lon="4.07643">
        <ele>692</ele>
        <time>2018-09-26T19:24:42Z</time>
      </trkpt>
      <trkpt lat="45.46754" lon="4.0761">
        <ele>692</ele>
        <time>2018-09-26T19:25:42Z</time>
      </trkpt>
      <trkpt lat="45.46742" lon="4.07599">
        <ele>691</ele>
        <time>2018-09-26T19:26:42Z</time>
      </trkpt>
      <trkpt lat="45.46727" lon="4.07599">
        <ele>691</ele>
        <time>2018-09-26T19:27:42Z</time>
      </trkpt>
      <trkpt lat="45.4672" lon="4.07608">
        <ele>691</ele>
        <time>2018-09-26T19:28:42Z</time>
      </trkpt>
      <trkpt lat="45.46719" lon="4.07632">
        <ele>690</ele>
        <time>2018-09-26T19:29:42Z</time>
      </trkpt>
      <trkpt lat="45.46717" lon="4.0766">
        <ele>690</ele>
        <time>2018-09-26T19:30:42Z</time>
      </trkpt>
      <trkpt lat="45.46717" lon="4.0772">
        <ele>692</ele>
        <time>2018-09-26T19:31:42Z</time>
      </trkpt>
      <trkpt lat="45.46709" lon="4.07689">
        <ele>692</ele>
        <time>2018-09-26T19:32:42Z</time>
      </trkpt>
      <trkpt lat="45.46705" lon="4.07673">
        <ele>691</ele>
        <time>2018-09-26T19:33:42Z</time>
      </trkpt>
      <trkpt lat="45.46698" lon="4.0766">
        <ele>692</ele>
        <time>2018-09-26T19:34:42Z</time>
      </trkpt>
      <trkpt lat="45.46689" lon="4.07654">
        <ele>693</ele>
        <time>2018-09-26T19:35:42Z</time>
      </trkpt>
      <trkpt lat="45.46672" lon="4.07647">
        <ele>694</ele>
        <time>2018-09-26T19:36:42Z</time>
      </trkpt>
      <trkpt lat="45.46661" lon="4.07667">
        <ele>697</ele>
        <time>2018-09-26T19:37:42Z</time>
      </trkpt>
      <trkpt lat="45.46662" lon="4.07701">
        <ele>701</ele>
        <time>2018-09-26T19:38:42Z</time>
      </trkpt>
      <trkpt lat="45.46646" lon="4.07773">
        <ele>713</ele>
        <time>2018-09-26T19:39:42Z</time>
      </trkpt>
      <trkpt lat="45.46637" lon="4.07786">
        <ele>715</ele>
        <time>2018-09-26T19:40:42Z</time>
      </trkpt>
      <trkpt lat="45.46621" lon="4.07786">
        <ele>717</ele>
        <time>2018-09-26T19:41:42Z</time>
      </trkpt>
      <trkpt lat="45.46614" lon="4.07802">
        <ele>719</ele>
        <time>2018-09-26T19:42:42Z</time>
      </trkpt>
      <trkpt lat="45.46602" lon="4.0782">
        <ele>723</ele>
        <time>2018-09-26T19:43:42Z</time>
      </trkpt>
      <trkpt lat="45.46595" lon="4.0783">
        <ele>725</ele>
        <time>2018-09-26T19:44:42Z</time>
      </trkpt>
      <trkpt lat="45.4659" lon="4.07844">
        <ele>728</ele>
        <time>2018-09-26T19:45:42Z</time>
      </trkpt>
      <trkpt lat="45.46584" lon="4.07871">
        <ele>733</ele>
        <time>2018-09-26T19:46:42Z</time>
      </trkpt>
      <trkpt lat="45.46578" lon="4.07885">
        <ele>735</ele>
        <time>2018-09-26T19:47:42Z</time>
      </trkpt>
      <trkpt lat="45.46561" lon="4.07903">
        <ele>737</ele>
        <time>2018-09-26T19:48:42Z</time>
      </trkpt>
      <trkpt lat="45.46529" lon="4.0793">
        <ele>738</ele>
        <time>2018-09-26T19:49:42Z</time>
      </trkpt>
      <trkpt lat="45.46361" lon="4.08034">
        <ele>739</ele>
        <time>2018-09-26T19:50:42Z</time>
      </trkpt>
      <trkpt lat="45.46307" lon="4.08113">
        <ele>732</ele>
        <time>2018-09-26T19:51:42Z</time>
      </trkpt>
      <trkpt lat="45.46281" lon="4.0814">
        <ele>729</ele>
        <time>2018-09-26T19:52:42Z</time>
      </trkpt>
      <trkpt lat="45.4627" lon="4.08143">
        <ele>729</ele>
        <time>2018-09-26T19:53:42Z</time>
      </trkpt>
      <trkpt lat="45.46264" lon="4.08145">
        <ele>728</ele>
        <time>2018-09-26T19:54:42Z</time>
      </trkpt>
      <trkpt lat="45.46184" lon="4.08195">
        <ele>723</ele>
        <time>2018-09-26T19:55:42Z</time>
      </trkpt>
      <trkpt lat="45.46098" lon="4.08241">
        <ele>719</ele>
        <time>2018-09-26T19:56:42Z</time>
      </trkpt>
      <trkpt lat="45.46007" lon="4.08283">
        <ele>718</ele>
        <time>2018-09-26T19:57:42Z</time>
      </trkpt>
      <trkpt lat="45.45975" lon="4.08286">
        <ele>718</ele>
        <time>2018-09-26T19:58:42Z</time>
      </trkpt>
      <trkpt lat="45.4593" lon="4.08292">
        <ele>717</ele>
        <time>2018-09-26T19:59:42Z</time>
      </trkpt>
      <trkpt lat="45.4587" lon="4.08276">
        <ele>715</ele>
        <time>2018-09-26T20:00:42Z</time>
      </trkpt>
      <trkpt lat="45.45839" lon="4.08264">
        <ele>714</ele>
        <time>2018-09-26T20:01:42Z</time>
      </trkpt>
      <trkpt lat="45.45774" lon="4.08214">
        <ele>711</ele>
        <time>2018-09-26T20:02:42Z</time>
      </trkpt>
      <trkpt lat="45.45751" lon="4.08189">
        <ele>712</ele>
        <time>2018-09-26T20:03:42Z</time>
      </trkpt>
      <trkpt lat="45.45741" lon="4.08172">
        <ele>713</ele>
        <time>2018-09-26T20:04:42Z</time>
      </trkpt>
      <trkpt lat="45.45677" lon="4.08063">
        <ele>713</ele>
        <time>2018-09-26T20:05:42Z</time>
      </trkpt>
      <trkpt lat="45.45623" lon="4.0798">
        <ele>710</ele>
        <time>2018-09-26T20:06:42Z</time>
      </trkpt>
      <trkpt lat="45.45601" lon="4.07953">
        <ele>710</ele>
        <time>2018-09-26T20:07:42Z</time>
      </trkpt>
      <trkpt lat="45.4555" lon="4.07918">
        <ele>712</ele>
        <time>2018-09-26T20:08:42Z</time>
      </trkpt>
      <trkpt lat="45.45491" lon="4.07896">
        <ele>714</ele>
        <time>2018-09-26T20:09:42Z</time>
      </trkpt>
      <trkpt lat="45.4545" lon="4.07893">
        <ele>715</ele>
        <time>2018-09-26T20:10:42Z</time>
      </trkpt>
      <trkpt lat="45.45409" lon="4.07896">
        <ele>714</ele>
        <time>2018-09-26T20:11:42Z</time>
      </trkpt>
      <trkpt lat="45.45372" lon="4.07909">
        <ele>711</ele>
        <time>2018-09-26T20:12:42Z</time>
      </trkpt>
      <trkpt lat="45.45314" lon="4.07947">
        <ele>707</ele>
        <time>2018-09-26T20:13:42Z</time>
      </trkpt>
      <trkpt lat="45.45268" lon="4.07993">
        <ele>708</ele>
        <time>2018-09-26T20:14:42Z</time>
      </trkpt>
      <trkpt lat="45.45251" lon="4.08015">
        <ele>709</ele>
        <time>2018-09-26T20:15:42Z</time>
      </trkpt>
      <trkpt lat="45.45223" lon="4.08072">
        <ele>712</ele>
        <time>2018-09-26T20:16:42Z</time>
      </trkpt>
      <trkpt lat="45.45195" lon="4.08132">
        <ele>715</ele>
        <time>2018-09-26T20:17:42Z</time>
      </trkpt>
      <trkpt lat="45.45181" lon="4.08172">
        <ele>715</ele>
        <time>2018-09-26T20:18:42Z</time>
      </trkpt>
      <trkpt lat="45.45157" lon="4.08254">
        <ele>714</ele>
        <time>2018-09-26T20:19:42Z</time>
      </trkpt>
      <trkpt lat="45.45149" lon="4.08314">
        <ele>712</ele>
        <time>2018-09-26T20:20:42Z</time>
      </trkpt>
      <trkpt lat="45.45148" lon="4.08363">
        <ele>708</ele>
        <time>2018-09-26T20:21:42Z</time>
      </trkpt>
      <trkpt lat="45.45151" lon="4.08404">
        <ele>705</ele>
        <time>2018-09-26T20:22:42Z</time>
      </trkpt>
      <trkpt lat="45.45169" lon="4.08512">
        <ele>700</ele>
        <time>2018-09-26T20:23:42Z</time>
      </trkpt>
      <trkpt lat="45.45196" lon="4.08613">
        <ele>697</ele>
        <time>2018-09-26T20:24:42Z</time>
      </trkpt>
      <trkpt lat="45.45202" lon="4.08692">
        <ele>693</ele>
        <time>2018-09-26T20:25:42Z</time>
      </trkpt>
      <trkpt lat="45.45196" lon="4.08828">
        <ele>690</ele>
        <time>2018-09-26T20:26:42Z</time>
      </trkpt>
      <trkpt lat="45.45191" lon="4.08998">
        <ele>689</ele>
        <time>2018-09-26T20:27:42Z</time>
      </trkpt>
      <trkpt lat="45.45197" lon="4.09057">
        <ele>686</ele>
        <time>2018-09-26T20:28:42Z</time>
      </trkpt>
      <trkpt lat="45.45254" lon="4.09312">
        <ele>680</ele>
        <time>2018-09-26T20:29:42Z</time>
      </trkpt>
      <trkpt lat="45.45313" lon="4.09561">
        <ele>675</ele>
        <time>2018-09-26T20:30:42Z</time>
      </trkpt>
      <trkpt lat="45.45345" lon="4.09729">
        <ele>674</ele>
        <time>2018-09-26T20:31:42Z</time>
      </trkpt>
      <trkpt lat="45.45372" lon="4.09854">
        <ele>666</ele>
        <time>2018-09-26T20:32:42Z</time>
      </trkpt>
      <trkpt lat="45.45389" lon="4.09942">
        <ele>664</ele>
        <time>2018-09-26T20:33:42Z</time>
      </trkpt>
      <trkpt lat="45.45389" lon="4.10008">
        <ele>663</ele>
        <time>2018-09-26T20:34:42Z</time>
      </trkpt>
      <trkpt lat="45.45379" lon="4.10083">
        <ele>659</ele>
        <time>2018-09-26T20:35:42Z</time>
      </trkpt>
      <trkpt lat="45.45366" lon="4.10161">
        <ele>652</ele>
        <time>2018-09-26T20:36:42Z</time>
      </trkpt>
      <trkpt lat="45.45362" lon="4.10248">
        <ele>648</ele>
        <time>2018-09-26T20:37:42Z</time>
      </trkpt>
      <trkpt lat="45.45372" lon="4.1031">
        <ele>649</ele>
        <time>2018-09-26T20:38:42Z</time>
      </trkpt>
      <trkpt lat="45.45392" lon="4.1039">
        <ele>650</ele>
        <time>2018-09-26T20:39:42Z</time>
      </trkpt>
      <trkpt lat="45.45418" lon="4.10447">
        <ele>652</ele>
        <time>2018-09-26T20:40:42Z</time>
      </trkpt>
      <trkpt lat="45.45459" lon="4.10505">
        <ele>652</ele>
        <time>2018-09-26T20:41:42Z</time>
      </trkpt>
      <trkpt lat="45.45513" lon="4.10549">
        <ele>653</ele>
        <time>2018-09-26T20:42:42Z</time>
      </trkpt>
      <trkpt lat="45.45568" lon="4.10574">
        <ele>649</ele>
        <time>2018-09-26T20:43:42Z</time>
      </trkpt>
      <trkpt lat="45.45652" lon="4.10578">
        <ele>646</ele>
        <time>2018-09-26T20:44:42Z</time>
      </trkpt>
      <trkpt lat="45.45741" lon="4.10609">
        <ele>642</ele>
        <time>2018-09-26T20:45:42Z</time>
      </trkpt>
      <trkpt lat="45.45795" lon="4.10654">
        <ele>642</ele>
        <time>2018-09-26T20:46:42Z</time>
      </trkpt>
      <trkpt lat="45.45831" lon="4.10711">
        <ele>642</ele>
        <time>2018-09-26T20:47:42Z</time>
      </trkpt>
      <trkpt lat="45.45863" lon="4.10775">
        <ele>644</ele>
        <time>2018-09-26T20:48:42Z</time>
      </trkpt>
      <trkpt lat="45.45866" lon="4.108">
        <ele>643</ele>
        <time>2018-09-26T20:49:42Z</time>
      </trkpt>
      <trkpt lat="45.45884" lon="4.10822">
        <ele>644</ele>
        <time>2018-09-26T20:50:42Z</time>
      </trkpt>
      <trkpt lat="45.45885" lon="4.10833">
        <ele>644</ele>
        <time>2018-09-26T20:51:42Z</time>
      </trkpt>
      <trkpt lat="45.45881" lon="4.10841">
        <ele>643</ele>
        <time>2018-09-26T20:52:42Z</time>
      </trkpt>
      <trkpt lat="45.45881" lon="4.10856">
        <ele>643</ele>
        <time>2018-09-26T20:53:42Z</time>
      </trkpt>
      <trkpt lat="45.45885" lon="4.10882">
        <ele>642</ele>
        <time>2018-09-26T20:54:42Z</time>
      </trkpt>
      <trkpt lat="45.45891" lon="4.10921">
        <ele>642</ele>
        <time>2018-09-26T20:55:42Z</time>
      </trkpt>
      <trkpt lat="45.45892" lon="4.10974">
        <ele>641</ele>
        <time>2018-09-26T20:56:42Z</time>
      </trkpt>
      <trkpt lat="45.45886" lon="4.11025">
        <ele>640</ele>
        <time>2018-09-26T20:57:42Z</time>
      </trkpt>
      <trkpt lat="45.45884" lon="4.11059">
        <ele>641</ele>
        <time>2018-09-26T20:58:42Z</time>
      </trkpt>
      <trkpt lat="45.45876" lon="4.1109">
        <ele>641</ele>
        <time>2018-09-26T20:59:42Z</time>
      </trkpt>
      <trkpt lat="45.45864" lon="4.11134">
        <ele>641</ele>
        <time>2018-09-26T21:00:42Z</time>
      </trkpt>
      <trkpt lat="45.45841" lon="4.11199">
        <ele>640</ele>
        <time>2018-09-26T21:01:42Z</time>
      </trkpt>
      <trkpt lat="45.45821" lon="4.1126">
        <ele>640</ele>
        <time>2018-09-26T21:02:42Z</time>
      </trkpt>
      <trkpt lat="45.458" lon="4.11321">
        <ele>636</ele>
        <time>2018-09-26T21:03:42Z</time>
      </trkpt>
      <trkpt lat="45.45782" lon="4.11379">
        <ele>635</ele>
        <time>2018-09-26T21:04:42Z</time>
      </trkpt>
      <trkpt lat="45.45769" lon="4.11445">
        <ele>634</ele>
        <time>2018-09-26T21:05:42Z</time>
      </trkpt>
      <trkpt lat="45.45766" lon="4.11531">
        <ele>630</ele>
        <time>2018-09-26T21:06:42Z</time>
      </trkpt>
      <trkpt lat="45.45774" lon="4.11606">
        <ele>624</ele>
        <time>2018-09-26T21:07:42Z</time>
      </trkpt>
      <trkpt lat="45.45791" lon="4.11676">
        <ele>622</ele>
        <time>2018-09-26T21:08:42Z</time>
      </trkpt>
      <trkpt lat="45.45824" lon="4.11771">
        <ele>626</ele>
        <time>2018-09-26T21:09:42Z</time>
      </trkpt>
      <trkpt lat="45.45856" lon="4.11839">
        <ele>626</ele>
        <time>2018-09-26T21:10:42Z</time>
      </trkpt>
      <trkpt lat="45.45901" lon="4.11923">
        <ele>625</ele>
        <time>2018-09-26T21:11:42Z</time>
      </trkpt>
      <trkpt lat="45.45985" lon="4.12055">
        <ele>624</ele>
        <time>2018-09-26T21:12:42Z</time>
      </trkpt>
      <trkpt lat="45.4609" lon="4.12204">
        <ele>624</ele>
        <time>2018-09-26T21:13:42Z</time>
      </trkpt>
      <trkpt lat="45.46143" lon="4.1229">
        <ele>622</ele>
        <time>2018-09-26T21:14:42Z</time>
      </trkpt>
      <trkpt lat="45.46166" lon="4.12354">
        <ele>618</ele>
        <time>2018-09-26T21:15:42Z</time>
      </trkpt>
      <trkpt lat="45.46171" lon="4.12372">
        <ele>617</ele>
        <time>2018-09-26T21:16:42Z</time>
      </trkpt>
      <trkpt lat="45.46177" lon="4.1241">
        <ele>614</ele>
        <time>2018-09-26T21:17:42Z</time>
      </trkpt>
      <trkpt lat="45.46184" lon="4.12484">
        <ele>613</ele>
        <time>2018-09-26T21:18:42Z</time>
      </trkpt>
      <trkpt lat="45.46184" lon="4.12528">
        <ele>612</ele>
        <time>2018-09-26T21:19:42Z</time>
      </trkpt>
      <trkpt lat="45.46178" lon="4.12568">
        <ele>610</ele>
        <time>2018-09-26T21:20:42Z</time>
      </trkpt>
      <trkpt lat="45.46169" lon="4.12617">
        <ele>609</ele>
        <time>2018-09-26T21:21:42Z</time>
      </trkpt>
      <trkpt lat="45.46152" lon="4.12705">
        <ele>610</ele>
        <time>2018-09-26T21:22:42Z</time>
      </trkpt>
      <trkpt lat="45.46141" lon="4.12799">
        <ele>610</ele>
        <time>2018-09-26T21:23:42Z</time>
      </trkpt>
      <trkpt lat="45.46131" lon="4.12874">
        <ele>608</ele>
        <time>2018-09-26T21:24:42Z</time>
      </trkpt>
      <trkpt lat="45.46116" lon="4.12967">
        <ele>604</ele>
        <time>2018-09-26T21:25:42Z</time>
      </trkpt>
      <trkpt lat="45.46104" lon="4.13012">
        <ele>602</ele>
        <time>2018-09-26T21:26:42Z</time>
      </trkpt>
      <trkpt lat="45.46091" lon="4.13055">
        <ele>603</ele>
        <time>2018-09-26T21:27:42Z</time>
      </trkpt>
      <trkpt lat="45.46022" lon="4.13226">
        <ele>602</ele>
        <time>2018-09-26T21:28:42Z</time>
      </trkpt>
      <trkpt lat="45.45994" lon="4.13298">
        <ele>601</ele>
        <time>2018-09-26T21:29:42Z</time>
      </trkpt>
      <trkpt lat="45.45983" lon="4.13361">
        <ele>601</ele>
        <time>2018-09-26T21:30:42Z</time>
      </trkpt>
      <trkpt lat="45.45953" lon="4.13615">
        <ele>600</ele>
        <time>2018-09-26T21:31:42Z</time>
      </trkpt>
      <trkpt lat="45.45948" lon="4.13666">
        <ele>601</ele>
        <time>2018-09-26T21:32:42Z</time>
      </trkpt>
      <trkpt lat="45.45947" lon="4.13715">
        <ele>599</ele>
        <time>2018-09-26T21:33:42Z</time>
      </trkpt>
      <trkpt lat="45.45949" lon="4.13743">
        <ele>599</ele>
        <time>2018-09-26T21:34:42Z</time>
      </trkpt>
      <trkpt lat="45.45954" lon="4.13824">
        <ele>597</ele>
        <time>2018-09-26T21:35:42Z</time>
      </trkpt>
      <trkpt lat="45.45959" lon="4.13883">
        <ele>596</ele>
        <time>2018-09-26T21:36:42Z</time>
      </trkpt>
      <trkpt lat="45.45968" lon="4.13963">
        <ele>596</ele>
        <time>2018-09-26T21:37:42Z</time>
      </trkpt>
      <trkpt lat="45.45973" lon="4.14002">
        <ele>597</ele>
        <time>2018-09-26T21:38:42Z</time>
      </trkpt>
      <trkpt lat="45.45975" lon="4.14054">
        <ele>599</ele>
        <time>2018-09-26T21:39:42Z</time>
      </trkpt>
      <trkpt lat="45.45973" lon="4.14139">
        <ele>598</ele>
        <time>2018-09-26T21:40:42Z</time>
      </trkpt>
      <trkpt lat="45.45961" lon="4.14204">
        <ele>595</ele>
        <time>2018-09-26T21:41:42Z</time>
      </trkpt>
      <trkpt lat="45.45948" lon="4.14249">
        <ele>593</ele>
        <time>2018-09-26T21:42:42Z</time>
      </trkpt>
      <trkpt lat="45.45911" lon="4.14318">
        <ele>596</ele>
        <time>2018-09-26T21:43:42Z</time>
      </trkpt>
      <trkpt lat="45.45877" lon="4.14382">
        <ele>595</ele>
        <time>2018-09-26T21:44:42Z</time>
      </trkpt>
      <trkpt lat="45.45846" lon="4.1444">
        <ele>593</ele>
        <time>2018-09-26T21:45:42Z</time>
      </trkpt>
      <trkpt lat="45.45818" lon="4.14505">
        <ele>591</ele>
        <time>2018-09-26T21:46:42Z</time>
      </trkpt>
      <trkpt lat="45.45796" lon="4.14546">
        <ele>590</ele>
        <time>2018-09-26T21:47:42Z</time>
      </trkpt>
      <trkpt lat="45.45771" lon="4.146">
        <ele>590</ele>
        <time>2018-09-26T21:48:42Z</time>
      </trkpt>
      <trkpt lat="45.45736" lon="4.1467">
        <ele>591</ele>
        <time>2018-09-26T21:49:42Z</time>
      </trkpt>
      <trkpt lat="45.45725" lon="4.14703">
        <ele>593</ele>
        <time>2018-09-26T21:50:42Z</time>
      </trkpt>
      <trkpt lat="45.45718" lon="4.14737">
        <ele>595</ele>
        <time>2018-09-26T21:51:42Z</time>
      </trkpt>
      <trkpt lat="45.45708" lon="4.14813">
        <ele>596</ele>
        <time>2018-09-26T21:52:42Z</time>
      </trkpt>
      <trkpt lat="45.45711" lon="4.14872">
        <ele>592</ele>
        <time>2018-09-26T21:53:42Z</time>
      </trkpt>
      <trkpt lat="45.45718" lon="4.14928">
        <ele>586</ele>
        <time>2018-09-26T21:54:42Z</time>
      </trkpt>
      <trkpt lat="45.45731" lon="4.14971">
        <ele>585</ele>
        <time>2018-09-26T21:55:42Z</time>
      </trkpt>
      <trkpt lat="45.45743" lon="4.15008">
        <ele>586</ele>
        <time>2018-09-26T21:56:42Z</time>
      </trkpt>
      <trkpt lat="45.45766" lon="4.15051">
        <ele>590</ele>
        <time>2018-09-26T21:57:42Z</time>
      </trkpt>
      <trkpt lat="45.45785" lon="4.15077">
        <ele>592</ele>
        <time>2018-09-26T21:58:42Z</time>
      </trkpt>
      <trkpt lat="45.45822" lon="4.15123">
        <ele>592</ele>
        <time>2018-09-26T21:59:42Z</time>
      </trkpt>
      <trkpt lat="45.45847" lon="4.15142">
        <ele>592</ele>
        <time>2018-09-26T22:00:42Z</time>
      </trkpt>
      <trkpt lat="45.45875" lon="4.15158">
        <ele>592</ele>
        <time>2018-09-26T22:01:42Z</time>
      </trkpt>
      <trkpt lat="45.45929" lon="4.15184">
        <ele>595</ele>
        <time>2018-09-26T22:02:42Z</time>
      </trkpt>
      <trkpt lat="45.45984" lon="4.15215">
        <ele>594</ele>
        <time>2018-09-26T22:03:42Z</time>
      </trkpt>
      <trkpt lat="45.45945" lon="4.15271">
        <ele>593</ele>
        <time>2018-09-26T22:04:42Z</time>
      </trkpt>
      <trkpt lat="45.45959" lon="4.15281">
        <ele>593</ele>
        <time>2018-09-26T22:05:42Z</time>
      </trkpt>
      <trkpt lat="45.46023" lon="4.15314">
        <ele>592</ele>
        <time>2018-09-26T22:06:42Z</time>
      </trkpt>
      <trkpt lat="45.46048" lon="4.15318">
        <ele>593</ele>
        <time>2018-09-26T22:07:42Z</time>
      </trkpt>
      <trkpt lat="45.4608" lon="4.1534">
        <ele>593</ele>
        <time>2018-09-26T22:08:42Z</time>
      </trkpt>
      <trkpt lat="45.46111" lon="4.15365">
        <ele>593</ele>
        <time>2018-09-26T22:09:42Z</time>
      </trkpt>
      <trkpt lat="45.46144" lon="4.15393">
        <ele>593</ele>
        <time>2018-09-26T22:10:42Z</time>
      </trkpt>
      <trkpt lat="45.4616" lon="4.15412">
        <ele>594</ele>
        <time>2018-09-26T22:11:42Z</time>
      </trkpt>
      <trkpt lat="45.46179" lon="4.15445">
        <ele>594</ele>
        <time>2018-09-26T22:12:42Z</time>
      </trkpt>
      <trkpt lat="45.46192" lon="4.15475">
        <ele>595</ele>
        <time>2018-09-26T22:13:42Z</time>
      </trkpt>
      <trkpt lat="45.46209" lon="4.15518">
        <ele>593</ele>
        <time>2018-09-26T22:14:42Z</time>
      </trkpt>
      <trkpt lat="45.46341" lon="4.15607">
        <ele>585</ele>
        <time>2018-09-26T22:15:42Z</time>
      </trkpt>
      <trkpt lat="45.4639" lon="4.15639">
        <ele>584</ele>
        <time>2018-09-26T22:16:42Z</time>
      </trkpt>
      <trkpt lat="45.46432" lon="4.1566">
        <ele>583</ele>
        <time>2018-09-26T22:17:42Z</time>
      </trkpt>
      <trkpt lat="45.46481" lon="4.1566">
        <ele>581</ele>
        <time>2018-09-26T22:18:42Z</time>
      </trkpt>
      <trkpt lat="45.46509" lon="4.15668">
        <ele>580</ele>
        <time>2018-09-26T22:19:42Z</time>
      </trkpt>
      <trkpt lat="45.46537" lon="4.15692">
        <ele>578</ele>
        <time>2018-09-26T22:20:42Z</time>
      </trkpt>
      <trkpt lat="45.46569" lon="4.15721">
        <ele>576</ele>
        <time>2018-09-26T22:21:42Z</time>
      </trkpt>
      <trkpt lat="45.46596" lon="4.15754">
        <ele>576</ele>
        <time>2018-09-26T22:22:42Z</time>
      </trkpt>
      <trkpt lat="45.46627" lon="4.15772">
        <ele>575</ele>
        <time>2018-09-26T22:23:42Z</time>
      </trkpt>
      <trkpt lat="45.46642" lon="4.15791">
        <ele>575</ele>
        <time>2018-09-26T22:24:42Z</time>
      </trkpt>
      <trkpt lat="45.46663" lon="4.15867">
        <ele>575</ele>
        <time>2018-09-26T22:25:42Z</time>
      </trkpt>
      <trkpt lat="45.46677" lon="4.15899">
        <ele>575</ele>
        <time>2018-09-26T22:26:42Z</time>
      </trkpt>
      <trkpt lat="45.46698" lon="4.15939">
        <ele>572</ele>
        <time>2018-09-26T22:27:42Z</time>
      </trkpt>
      <trkpt lat="45.46718" lon="4.15965">
        <ele>569</ele>
        <time>2018-09-26T22:28:42Z</time>
      </trkpt>
      <trkpt lat="45.46816" lon="4.16043">
        <ele>561</ele>
        <time>2018-09-26T22:29:42Z</time>
      </trkpt>
      <trkpt lat="45.46851" lon="4.16062">
        <ele>558</ele>
        <time>2018-09-26T22:30:42Z</time>
      </trkpt>
      <trkpt lat="45.46902" lon="4.16063">
        <ele>553</ele>
        <time>2018-09-26T22:31:42Z</time>
      </trkpt>
      <trkpt lat="45.46934" lon="4.16066">
        <ele>550</ele>
        <time>2018-09-26T22:32:42Z</time>
      </trkpt>
      <trkpt lat="45.46937" lon="4.16166">
        <ele>546</ele>
        <time>2018-09-26T22:33:42Z</time>
      </trkpt>
      <trkpt lat="45.47003" lon="4.16158">
        <ele>538</ele>
        <time>2018-09-26T22:34:42Z</time>
      </trkpt>
      <trkpt lat="45.47057" lon="4.16128">
        <ele>532</ele>
        <time>2018-09-26T22:35:42Z</time>
      </trkpt>
      <trkpt lat="45.47116" lon="4.16134">
        <ele>526</ele>
        <time>2018-09-26T22:36:42Z</time>
      </trkpt>
      <trkpt lat="45.47165" lon="4.16159">
        <ele>519</ele>
        <time>2018-09-26T22:37:42Z</time>
      </trkpt>
      <trkpt lat="45.47198" lon="4.16153">
        <ele>519</ele>
        <time>2018-09-26T22:38:42Z</time>
      </trkpt>
      <trkpt lat="45.47228" lon="4.1614">
        <ele>519</ele>
        <time>2018-09-26T22:39:42Z</time>
      </trkpt>
      <trkpt lat="45.47275" lon="4.16176">
        <ele>520</ele>
        <time>2018-09-26T22:40:42Z</time>
      </trkpt>
      <trkpt lat="45.47249" lon="4.16217">
        <ele>520</ele>
        <time>2018-09-26T22:41:42Z</time>
      </trkpt>
      <trkpt lat="45.47224" lon="4.16273">
        <ele>519</ele>
        <time>2018-09-26T22:42:42Z</time>
      </trkpt>
      <trkpt lat="45.47197" lon="4.16358">
        <ele>517</ele>
        <time>2018-09-26T22:43:42Z</time>
      </trkpt>
      <trkpt lat="45.47187" lon="4.16458">
        <ele>514</ele>
        <time>2018-09-26T22:44:42Z</time>
      </trkpt>
      <trkpt lat="45.47183" lon="4.16574">
        <ele>513</ele>
        <time>2018-09-26T22:45:42Z</time>
      </trkpt>
      <trkpt lat="45.47189" lon="4.16691">
        <ele>510</ele>
        <time>2018-09-26T22:46:42Z</time>
      </trkpt>
      <trkpt lat="45.47226" lon="4.16924">
        <ele>505</ele>
        <time>2018-09-26T22:47:42Z</time>
      </trkpt>
      <trkpt lat="45.47234" lon="4.16985">
        <ele>504</ele>
        <time>2018-09-26T22:48:42Z</time>
      </trkpt>
      <trkpt lat="45.47225" lon="4.17042">
        <ele>502</ele>
        <time>2018-09-26T22:49:42Z</time>
      </trkpt>
      <trkpt lat="45.47225" lon="4.1706">
        <ele>502</ele>
        <time>2018-09-26T22:50:42Z</time>
      </trkpt>
      <trkpt lat="45.47219" lon="4.17125">
        <ele>502</ele>
        <time>2018-09-26T22:51:42Z</time>
      </trkpt>
      <trkpt lat="45.47207" lon="4.17178">
        <ele>500</ele>
        <time>2018-09-26T22:52:42Z</time>
      </trkpt>
      <trkpt lat="45.47192" lon="4.1725">
        <ele>497</ele>
        <time>2018-09-26T22:53:42Z</time>
      </trkpt>
      <trkpt lat="45.47182" lon="4.17305">
        <ele>495</ele>
        <time>2018-09-26T22:54:42Z</time>
      </trkpt>
      <trkpt lat="45.47183" lon="4.17398">
        <ele>496</ele>
        <time>2018-09-26T22:55:42Z</time>
      </trkpt>
      <trkpt lat="45.47192" lon="4.1744">
        <ele>494</ele>
        <time>2018-09-26T22:56:42Z</time>
      </trkpt>
      <trkpt lat="45.47203" lon="4.17484">
        <ele>488</ele>
        <time>2018-09-26T22:57:42Z</time>
      </trkpt>
      <trkpt lat="45.47228" lon="4.17548">
        <ele>482</ele>
        <time>2018-09-26T22:58:42Z</time>
      </trkpt>
      <trkpt lat="45.47251" lon="4.17596">
        <ele>476</ele>
        <time>2018-09-26T22:59:42Z</time>
      </trkpt>
      <trkpt lat="45.47302" lon="4.17652">
        <ele>476</ele>
        <time>2018-09-26T23:00:42Z</time>
      </trkpt>
      <trkpt lat="45.4735" lon="4.17713">
        <ele>476</ele>
        <time>2018-09-26T23:01:42Z</time>
      </trkpt>
      <trkpt lat="45.47378" lon="4.17763">
        <ele>474</ele>
        <time>2018-09-26T23:02:42Z</time>
      </trkpt>
      <trkpt lat="45.47404" lon="4.17817">
        <ele>472</ele>
        <time>2018-09-26T23:03:42Z</time>
      </trkpt>
      <trkpt lat="45.47432" lon="4.179">
        <ele>469</ele>
        <time>2018-09-26T23:04:42Z</time>
      </trkpt>
      <trkpt lat="45.47475" lon="4.17993">
        <ele>470</ele>
        <time>2018-09-26T23:05:42Z</time>
      </trkpt>
      <trkpt lat="45.47527" lon="4.18068">
        <ele>466</ele>
        <time>2018-09-26T23:06:42Z</time>
      </trkpt>
      <trkpt lat="45.47582" lon="4.18134">
        <ele>464</ele>
        <time>2018-09-26T23:07:42Z</time>
      </trkpt>
      <trkpt lat="45.47714" lon="4.18305">
        <ele>456</ele>
        <time>2018-09-26T23:08:42Z</time>
      </trkpt>
      <trkpt lat="45.47749" lon="4.18353">
        <ele>454</ele>
        <time>2018-09-26T23:09:42Z</time>
      </trkpt>
      <trkpt lat="45.47798" lon="4.18475">
        <ele>452</ele>
        <time>2018-09-26T23:10:42Z</time>
      </trkpt>
      <trkpt lat="45.47842" lon="4.1858">
        <ele>449</ele>
        <time>2018-09-26T23:11:42Z</time>
      </trkpt>
      <trkpt lat="45.47873" lon="4.18633">
        <ele>449</ele>
        <time>2018-09-26T23:12:42Z</time>
      </trkpt>
      <trkpt lat="45.47943" lon="4.18711">
        <ele>444</ele>
        <time>2018-09-26T23:13:42Z</time>
      </trkpt>
      <trkpt lat="45.48033" lon="4.18739">
        <ele>443</ele>
        <time>2018-09-26T23:14:42Z</time>
      </trkpt>
      <trkpt lat="45.48105" lon="4.18755">
        <ele>444</ele>
        <time>2018-09-26T23:15:42Z</time>
      </trkpt>
      <trkpt lat="45.48219" lon="4.18734">
        <ele>439</ele>
        <time>2018-09-26T23:16:42Z</time>
      </trkpt>
      <trkpt lat="45.48363" lon="4.18688">
        <ele>434</ele>
        <time>2018-09-26T23:17:42Z</time>
      </trkpt>
      <trkpt lat="45.48489" lon="4.1863">
        <ele>431</ele>
        <time>2018-09-26T23:18:42Z</time>
      </trkpt>
      <trkpt lat="45.48546" lon="4.18607">
        <ele>427</ele>
        <time>2018-09-26T23:19:42Z</time>
      </trkpt>
      <trkpt lat="45.48602" lon="4.18601">
        <ele>423</ele>
        <time>2018-09-26T23:20:42Z</time>
      </trkpt>
      <trkpt lat="45.48682" lon="4.18621">
        <ele>419</ele>
        <time>2018-09-26T23:21:42Z</time>
      </trkpt>
      <trkpt lat="45.48756" lon="4.1865">
        <ele>418</ele>
        <time>2018-09-26T23:22:42Z</time>
      </trkpt>
      <trkpt lat="45.4882" lon="4.18665">
        <ele>415</ele>
        <time>2018-09-26T23:23:42Z</time>
      </trkpt>
      <trkpt lat="45.48945" lon="4.1863">
        <ele>414</ele>
        <time>2018-09-26T23:24:42Z</time>
      </trkpt>
      <trkpt lat="45.49108" lon="4.18582">
        <ele>415</ele>
        <time>2018-09-26T23:25:42Z</time>
      </trkpt>
      <trkpt lat="45.49276" lon="4.18558">
        <ele>415</ele>
        <time>2018-09-26T23:26:42Z</time>
      </trkpt>
      <trkpt lat="45.49494" lon="4.18557">
        <ele>414</ele>
        <time>2018-09-26T23:27:42Z</time>
      </trkpt>
      <trkpt lat="45.49659" lon="4.18564">
        <ele>415</ele>
        <time>2018-09-26T23:28:42Z</time>
      </trkpt>
      <trkpt lat="45.49775" lon="4.1858">
        <ele>413</ele>
        <time>2018-09-26T23:29:42Z</time>
      </trkpt>
      <trkpt lat="45.4983" lon="4.18591">
        <ele>411</ele>
        <time>2018-09-26T23:30:42Z</time>
      </trkpt>
      <trkpt lat="45.49981" lon="4.18633">
        <ele>407</ele>
        <time>2018-09-26T23:31:42Z</time>
      </trkpt>
      <trkpt lat="45.50117" lon="4.18686">
        <ele>405</ele>
        <time>2018-09-26T23:32:42Z</time>
      </trkpt>
      <trkpt lat="45.50245" lon="4.18733">
        <ele>405</ele>
        <time>2018-09-26T23:33:42Z</time>
      </trkpt>
      <trkpt lat="45.50345" lon="4.18774">
        <ele>405</ele>
        <time>2018-09-26T23:34:42Z</time>
      </trkpt>
      <trkpt lat="45.50531" lon="4.18878">
        <ele>402</ele>
        <time>2018-09-26T23:35:42Z</time>
      </trkpt>
      <trkpt lat="45.50657" lon="4.18956">
        <ele>399</ele>
        <time>2018-09-26T23:36:42Z</time>
      </trkpt>
      <trkpt lat="45.50764" lon="4.19007">
        <ele>398</ele>
        <time>2018-09-26T23:37:42Z</time>
      </trkpt>
      <trkpt lat="45.511" lon="4.19111">
        <ele>390</ele>
        <time>2018-09-26T23:38:42Z</time>
      </trkpt>
      <trkpt lat="45.511" lon="4.19098">
        <ele>390</ele>
        <time>2018-09-26T23:39:42Z</time>
      </trkpt>
      <trkpt lat="45.51136" lon="4.19104">
        <ele>390</ele>
        <time>2018-09-26T23:40:42Z</time>
      </trkpt>
      <trkpt lat="45.51159" lon="4.19123">
        <ele>389</ele>
        <time>2018-09-26T23:41:42Z</time>
      </trkpt>
      <trkpt lat="45.51176" lon="4.19176">
        <ele>388</ele>
        <time>2018-09-26T23:42:42Z</time>
      </trkpt>
      <trkpt lat="45.51206" lon="4.19149">
        <ele>388</ele>
        <time>2018-09-26T23:43:42Z</time>
      </trkpt>
      <trkpt lat="45.51165" lon="4.19065">
        <ele>389</ele>
        <time>2018-09-26T23:44:42Z</time>
      </trkpt>
      <trkpt lat="45.51154" lon="4.19042">
        <ele>390</ele>
        <time>2018-09-26T23:45:42Z</time>
      </trkpt>
      <trkpt lat="45.51161" lon="4.19024">
        <ele>390</ele>
        <time>2018-09-26T23:46:42Z</time>
      </trkpt>
      <trkpt lat="45.51207" lon="4.19016">
        <ele>389</ele>
        <time>2018-09-26T23:47:42Z</time>
      </trkpt>
      <trkpt lat="45.51262" lon="4.18997">
        <ele>389</ele>
        <time>2018-09-26T23:48:42Z</time>
      </trkpt>
      <trkpt lat="45.51311" lon="4.1895">
        <ele>388</ele>
        <time>2018-09-26T23:49:42Z</time>
      </trkpt>
      <trkpt lat="45.51375" lon="4.18855">
        <ele>388</ele>
        <time>2018-09-26T23:50:42Z</time>
      </trkpt>
      <trkpt lat="45.51423" lon="4.18772">
        <ele>390</ele>
        <time>2018-09-26T23:51:42Z</time>
      </trkpt>
      <trkpt lat="45.51463" lon="4.18663">
        <ele>390</ele>
        <time>2018-09-26T23:52:42Z</time>
      </trkpt>
      <trkpt lat="45.51469" lon="4.18582">
        <ele>390</ele>
        <time>2018-09-26T23:53:42Z</time>
      </trkpt>
      <trkpt lat="45.51467" lon="4.1852">
        <ele>390</ele>
        <time>2018-09-26T23:54:42Z</time>
      </trkpt>
      <trkpt lat="45.5145" lon="4.18443">
        <ele>389</ele>
        <time>2018-09-26T23:55:42Z</time>
      </trkpt>
      <trkpt lat="45.51434" lon="4.18413">
        <ele>389</ele>
        <time>2018-09-26T23:56:42Z</time>
      </trkpt>
      <trkpt lat="45.51415" lon="4.18374">
        <ele>387</ele>
        <time>2018-09-26T23:57:42Z</time>
      </trkpt>
      <trkpt lat="45.51402" lon="4.18352">
        <ele>387</ele>
        <time>2018-09-26T23:58:42Z</time>
      </trkpt>
      <trkpt lat="45.51384" lon="4.18328">
        <ele>386</ele>
        <time>2018-09-26T23:59:42Z</time>
      </trkpt>
      <trkpt lat="45.51365" lon="4.18312">
        <ele>387</ele>
        <time>2018-09-27T00:00:42Z</time>
      </trkpt>
      <trkpt lat="45.51339" lon="4.1828">
        <ele>387</ele>
        <time>2018-09-27T00:01:42Z</time>
      </trkpt>
      <trkpt lat="45.51317" lon="4.18247">
        <ele>388</ele>
        <time>2018-09-27T00:02:42Z</time>
      </trkpt>
      <trkpt lat="45.51287" lon="4.18201">
        <ele>389</ele>
        <time>2018-09-27T00:03:42Z</time>
      </trkpt>
      <trkpt lat="45.51265" lon="4.18131">
        <ele>388</ele>
        <time>2018-09-27T00:04:42Z</time>
      </trkpt>
      <trkpt lat="45.51247" lon="4.18035">
        <ele>388</ele>
        <time>2018-09-27T00:05:42Z</time>
      </trkpt>
      <trkpt lat="45.5125" lon="4.17982">
        <ele>389</ele>
        <time>2018-09-27T00:06:42Z</time>
      </trkpt>
      <trkpt lat="45.51258" lon="4.17935">
        <ele>388</ele>
        <time>2018-09-27T00:07:42Z</time>
      </trkpt>
      <trkpt lat="45.51275" lon="4.17863">
        <ele>388</ele>
        <time>2018-09-27T00:08:42Z</time>
      </trkpt>
      <trkpt lat="45.5126" lon="4.17847">
        <ele>388</ele>
        <time>2018-09-27T00:09:42Z</time>
      </trkpt>
      <trkpt lat="45.51236" lon="4.17845">
        <ele>388</ele>
        <time>2018-09-27T00:10:42Z</time>
      </trkpt>
      <trkpt lat="45.51219" lon="4.17846">
        <ele>387</ele>
        <time>2018-09-27T00:11:42Z</time>
      </trkpt>
      <trkpt lat="45.51196" lon="4.17861">
        <ele>386</ele>
        <time>2018-09-27T00:12:42Z</time>
      </trkpt>
      <trkpt lat="45.51176" lon="4.17865">
        <ele>386</ele>
        <time>2018-09-27T00:13:42Z</time>
      </trkpt>
      <trkpt lat="45.51179" lon="4.17841">
        <ele>386</ele>
        <time>2018-09-27T00:14:42Z</time>
      </trkpt>
      <trkpt lat="45.51183" lon="4.17807">
        <ele>386</ele>
        <time>2018-09-27T00:15:42Z</time>
      </trkpt>
      <trkpt lat="45.51195" lon="4.17774">
        <ele>386</ele>
        <time>2018-09-27T00:16:42Z</time>
      </trkpt>
      <trkpt lat="45.5119" lon="4.1775">
        <ele>387</ele>
        <time>2018-09-27T00:17:42Z</time>
      </trkpt>
      <trkpt lat="45.51178" lon="4.17729">
        <ele>387</ele>
        <time>2018-09-27T00:18:42Z</time>
      </trkpt>
      <trkpt lat="45.5115" lon="4.17696">
        <ele>387</ele>
        <time>2018-09-27T00:19:42Z</time>
      </trkpt>
      <trkpt lat="45.51126" lon="4.17674">
        <ele>387</ele>
        <time>2018-09-27T00:20:42Z</time>
      </trkpt>
      <trkpt lat="45.51095" lon="4.17648">
        <ele>386</ele>
        <time>2018-09-27T00:21:42Z</time>
      </trkpt>
      <trkpt lat="45.51051" lon="4.17636">
        <ele>385</ele>
        <time>2018-09-27T00:22:42Z</time>
      </trkpt>
      <trkpt lat="45.51044" lon="4.17607">
        <ele>385</ele>
        <time>2018-09-27T00:23:42Z</time>
      </trkpt>
      <trkpt lat="45.51035" lon="4.17573">
        <ele>385</ele>
        <time>2018-09-27T00:24:42Z</time>
      </trkpt>
      <trkpt lat="45.5103" lon="4.17545">
        <ele>385</ele>
        <time>2018-09-27T00:25:42Z</time>
      </trkpt>
      <trkpt lat="45.51041" lon="4.17522">
        <ele>386</ele>
        <time>2018-09-27T00:26:42Z</time>
      </trkpt>
      <trkpt lat="45.51051" lon="4.17497">
        <ele>385</ele>
        <time>2018-09-27T00:27:42Z</time>
      </trkpt>
      <trkpt lat="45.51063" lon="4.17472">
        <ele>385</ele>
        <time>2018-09-27T00:28:42Z</time>
      </trkpt>
      <trkpt lat="45.51074" lon="4.1743">
        <ele>384</ele>
        <time>2018-09-27T00:29:42Z</time>
      </trkpt>
      <trkpt lat="45.51092" lon="4.1734">
        <ele>383</ele>
        <time>2018-09-27T00:30:42Z</time>
      </trkpt>
      <trkpt lat="45.51044" lon="4.17332">
        <ele>384</ele>
        <time>2018-09-27T00:31:42Z</time>
      </trkpt>
      <trkpt lat="45.5102" lon="4.17317">
        <ele>385</ele>
        <time>2018-09-27T00:32:42Z</time>
      </trkpt>
      <trkpt lat="45.50998" lon="4.17299">
        <ele>385</ele>
        <time>2018-09-27T00:33:42Z</time>
      </trkpt>
      <trkpt lat="45.50987" lon="4.17289">
        <ele>385</ele>
        <time>2018-09-27T00:34:42Z</time>
      </trkpt>
      <trkpt lat="45.50965" lon="4.17263">
        <ele>385</ele>
        <time>2018-09-27T00:35:42Z</time>
      </trkpt>
      <trkpt lat="45.50959" lon="4.17239">
        <ele>385</ele>
        <time>2018-09-27T00:36:42Z</time>
      </trkpt>
      <trkpt lat="45.50953" lon="4.17224">
        <ele>385</ele>
        <time>2018-09-27T00:37:42Z</time>
      </trkpt>
      <trkpt lat="45.50947" lon="4.1719">
        <ele>386</ele>
        <time>2018-09-27T00:38:42Z</time>
      </trkpt>
      <trkpt lat="45.50943" lon="4.17127">
        <ele>386</ele>
        <time>2018-09-27T00:39:42Z</time>
      </trkpt>
    </trkseg>
  </trk>
</gpx>